Lake Natoma, California
Current Conditions -  °F | °C
As of 8:46 PM on Saturday 24 Jan 2015 (Local Time) from KMHR Reporting Station
Moderate Fog Moderate Fog  
Wind Chill: 42°   Ceiling: 200
Heat Index: 45°   Visibility: 0.12mi
Dew Point: 45°   Wind: 5mph
Humidity: 100%   Direction: 140°SE
Pressure: 30.18"   Gusts: NA
Location:  38.6648°N, 121.141°W
Report Text: KMHR 250446Z 14004KT 1/8SM FG OVC002 07/07 A3018
Loading
Personal Weather Stations






























Interactive Weather Map New forecast layout! Learn more

10-Day Weather Forecast

Advertisements
Track Severe Weather on mobile